Aérodrome :
LOGIN :

S'inscrire | Disclaimer

   EN    FR    IT 

 










Légende :    VFR   VFR Marginal   IFR   IFR Intensif   IFR Très Intensif
Visi : 
Plafond : 
>= 8 km
>= 3000ft
5 à 8 km
1000 à 3000 ft
1500m à 5 km
500 à 1000 ft
800 à 1500m
200 à 500 ft
< 800m
< 200 ft
Symboles :   Orages  Brouillard  Fortes neiges  Fortes précipitations  Vent > 20 kt
SIGMETs :   Divers  Orages  Givrage  Turbulence  Onde Orograph.  Cendres Volcan.






- Altitude de l'aérodrome : 220 ft
- Code IATA : CWL


EGFF - Cardiff Rhoose

DERNIER METAR :
  • 281220Z AUTO 06018KT 9999 OVC030 10/03 Q1030

METARs EXPIRÉS :
  • 281150Z AUTO 06019G29KT 020V080 9999 OVC030 10/03 Q1030
  • 281120Z AUTO 05018KT 9999 BKN024 BKN030 10/03 Q1030
  • 281050Z AUTO 06020G30KT 9999 BKN020 09/04 Q1029
  • 281020Z AUTO 05021KT 9999 BKN018 OVC023 08/04 Q1029
  • 280950Z AUTO 05020G31KT 9999 BKN019 08/03 Q1029

TAF TAF EGFF
Valide du 27 à 18h jusqu'au 28 à 18h UTC


271712Z 2718/2818 04012KT CAVOK
PROB30
TEMPO 2718/2721 BKN045
PROB30
TEMPO 2805/2809 5000 BR
PROB30
TEMPO 2809/2818 04015G25KT BKN045
ATIS : +44 1446 729 319



MET'MAP, la Météo Aéronautique d'un coup d'oeil ! - Copyright ORBIFLY Décembre 2007 - Disclaimer

ORBIFLY MET'MAP TEAM :

Programmation & Développement : Alexandra Zaïnal
Sur une idée originale de : Baudouin d'Aumeries
Assistance à la programmation : Marc-Olivier Méhu
Soutien technique & logistique : Manuel Goepfert

Contact : metmap@orbifly.com




SOURCES & CREDITS :

   NOAA